Time;durP1;ratioP1;P1;durP2;ratioP2;P2;SDS_P1;SDS_P2;PMS_P1;PMS_P2;Temp;Humidity;BMP_temperature;BMP_pressure;BME280_temperature;BME280_humidity;BME280_pressure;Samples;Min_cycle;Max_cycle;Signal;HPM_P1;HPM_P2
2024/01/13 00:02:14;;;;;;;79.53;37.63;;;4.50;99.90;;;;;;5035494;28;20028;-72
2024/01/13 00:04:40;;;;;;;74.65;36.85;;;4.50;99.90;;;;;;5035353;28;20017;-72
2024/01/13 00:07:06;;;;;;;77.30;37.53;;;4.40;99.90;;;;;;5036006;28;20523;-72
2024/01/13 00:09:31;;;;;;;72.50;35.65;;;4.40;99.90;;;;;;5033970;28;20025;-72
2024/01/13 00:11:57;;;;;;;71.10;35.53;;;4.40;99.90;;;;;;5033391;28;20488;-71
2024/01/13 00:14:23;;;;;;;72.50;34.63;;;4.50;99.90;;;;;;5031562;28;20466;-71
2024/01/13 00:16:49;;;;;;;71.10;35.47;;;4.50;99.90;;;;;;5035349;28;20039;-72
2024/01/13 00:19:15;;;;;;;66.10;33.90;;;4.50;99.90;;;;;;5038962;28;20074;-72
2024/01/13 00:21:40;;;;;;;64.03;33.42;;;4.40;99.90;;;;;;5033204;28;20037;-71
2024/01/13 00:24:06;;;;;;;63.78;30.27;;;4.50;99.90;;;;;;5034050;28;20035;-72
2024/01/13 00:26:32;;;;;;;63.72;31.45;;;4.50;99.90;;;;;;5033399;28;20608;-72
2024/01/13 00:28:57;;;;;;;66.57;32.00;;;4.50;99.90;;;;;;5033971;28;20014;-72
2024/01/13 00:31:23;;;;;;;63.53;30.63;;;4.50;99.90;;;;;;5033665;28;20026;-71
2024/01/13 00:33:49;;;;;;;63.70;30.10;;;4.60;99.90;;;;;;5033531;28;20094;-72
2024/01/13 00:36:14;;;;;;;62.03;31.00;;;4.60;99.90;;;;;;5036002;28;20033;-71
2024/01/13 00:38:40;;;;;;;62.17;28.42;;;4.60;99.90;;;;;;5029701;28;20091;-72
2024/01/13 00:41:06;;;;;;;58.38;28.20;;;4.60;99.90;;;;;;5033126;28;20111;-71
2024/01/13 00:43:33;;;;;;;56.25;27.30;;;4.50;99.90;;;;;;5032970;28;20100;-72
2024/01/13 00:45:59;;;;;;;57.30;26.30;;;4.40;99.90;;;;;;5034299;28;20082;-71
2024/01/13 00:48:25;;;;;;;53.83;26.92;;;4.50;99.90;;;;;;5036767;28;20060;-72
2024/01/13 00:50:50;;;;;;;49.42;25.23;;;4.50;99.90;;;;;;5031612;28;20707;-72
2024/01/13 00:53:16;;;;;;;51.47;25.15;;;4.60;99.90;;;;;;5034219;28;20486;-72
2024/01/13 00:55:42;;;;;;;49.72;25.15;;;4.60;99.90;;;;;;5035409;28;20100;-72
2024/01/13 00:58:07;;;;;;;47.20;23.58;;;4.60;99.90;;;;;;5034417;28;20478;-72
2024/01/13 01:00:33;;;;;;;54.88;26.38;;;4.70;99.90;;;;;;5032510;28;20045;-72
2024/01/13 01:02:59;;;;;;;54.58;25.17;;;4.70;99.90;;;;;;5032733;28;20036;-73
2024/01/13 01:05:24;;;;;;;44.85;22.10;;;4.70;99.90;;;;;;5035174;28;20500;-72
2024/01/13 01:07:50;;;;;;;57.55;25.83;;;4.60;99.90;;;;;;5034215;28;20021;-72
2024/01/13 01:10:16;;;;;;;47.00;24.13;;;4.60;99.90;;;;;;5032053;28;20571;-71
2024/01/13 01:12:42;;;;;;;48.75;23.33;;;4.50;99.90;;;;;;5036832;28;20029;-72
2024/01/13 01:15:08;;;;;;;49.22;24.70;;;4.60;99.90;;;;;;5037352;28;20029;-73
2024/01/13 01:17:33;;;;;;;48.25;25.05;;;4.70;99.90;;;;;;5031164;28;20557;-72
2024/01/13 01:19:59;;;;;;;49.70;23.10;;;4.60;99.90;;;;;;5030841;28;20029;-72
2024/01/13 01:22:25;;;;;;;43.30;24.20;;;4.60;99.90;;;;;;5033487;28;20486;-72
2024/01/13 01:24:51;;;;;;;52.50;26.25;;;4.60;99.90;;;;;;5030883;28;20052;-71
2024/01/13 01:27:16;;;;;;;46.72;24.23;;;4.70;99.90;;;;;;5035833;28;20646;-71
2024/01/13 01:29:42;;;;;;;53.28;25.17;;;4.70;99.90;;;;;;5032877;28;20025;-72
2024/01/13 01:32:08;;;;;;;52.75;25.50;;;4.60;99.90;;;;;;5032533;28;20128;-71
2024/01/13 01:34:33;;;;;;;47.75;24.05;;;4.60;99.90;;;;;;5030607;28;20036;-72
2024/01/13 01:36:59;;;;;;;50.75;25.63;;;4.70;99.90;;;;;;5032398;28;20033;-72
2024/01/13 01:39:25;;;;;;;53.25;26.33;;;4.50;99.90;;;;;;5031620;28;20482;-72
2024/01/13 01:41:51;;;;;;;51.08;26.00;;;4.50;99.90;;;;;;5035064;28;20033;-72
2024/01/13 01:44:17;;;;;;;46.05;24.77;;;4.60;99.90;;;;;;5037267;28;20029;-72
2024/01/13 01:46:46;;;;;;;55.05;26.45;;;4.60;99.90;;;;;;5030962;28;20025;-72
2024/01/13 01:49:14;;;;;;;58.03;28.63;;;4.50;99.90;;;;;;5031492;28;20026;-72
2024/01/13 01:51:41;;;;;;;55.30;26.85;;;4.60;99.90;;;;;;5032064;28;20034;-71
2024/01/13 01:54:08;;;;;;;52.60;25.10;;;4.60;99.90;;;;;;5031149;28;20033;-72
2024/01/13 01:56:35;;;;;;;54.80;27.05;;;4.50;99.90;;;;;;5031429;28;20037;-72
2024/01/13 01:59:02;;;;;;;53.47;27.27;;;4.50;99.90;;;;;;5030224;28;20478;-71
2024/01/13 02:01:31;;;;;;;55.65;28.40;;;4.50;99.90;;;;;;5033709;28;20094;-72
2024/01/13 02:03:59;;;;;;;51.80;26.00;;;4.40;99.90;;;;;;4998002;28;20025;-71
2024/01/13 02:06:25;;;;;;;50.80;26.00;;;4.50;99.90;;;;;;5019712;28;20025;-72
2024/01/13 02:08:51;;;;;;;55.22;26.75;;;4.60;99.90;;;;;;5040206;28;20280;-72
2024/01/13 02:11:17;;;;;;;47.20;26.90;;;4.60;99.90;;;;;;5037334;28;20029;-71
2024/01/13 02:13:45;;;;;;;60.50;26.58;;;4.50;99.90;;;;;;5036180;28;20116;-72
2024/01/13 02:16:11;;;;;;;52.65;26.83;;;4.50;99.90;;;;;;5037478;28;20029;-72
2024/01/13 02:18:38;;;;;;;55.60;27.80;;;4.60;99.90;;;;;;5039812;28;20080;-71
2024/01/13 02:21:03;;;;;;;53.97;27.42;;;4.70;99.90;;;;;;5032126;28;20614;-71
2024/01/13 02:23:33;;;;;;;62.17;30.42;;;4.70;99.90;;;;;;5022767;28;20030;-71
2024/01/13 02:25:58;;;;;;;50.35;29.00;;;4.70;99.90;;;;;;5032255;28;20028;-72
2024/01/13 02:28:24;;;;;;;58.47;28.75;;;4.70;99.90;;;;;;5033928;28;20030;-72
2024/01/13 02:30:50;;;;;;;55.00;28.38;;;4.70;99.90;;;;;;5034573;28;20045;-72
2024/01/13 02:33:16;;;;;;;53.45;29.35;;;4.70;99.90;;;;;;5038387;28;20024;-72
2024/01/13 02:35:42;;;;;;;58.35;28.33;;;4.70;99.90;;;;;;5038137;28;20489;-72
2024/01/13 02:38:07;;;;;;;49.08;26.92;;;4.70;99.90;;;;;;5039133;28;20029;-72
2024/01/13 02:40:34;;;;;;;62.78;29.13;;;4.70;99.90;;;;;;5040321;28;20040;-72
2024/01/13 02:42:59;;;;;;;61.08;29.73;;;4.60;99.90;;;;;;5039223;28;20049;-72
2024/01/13 02:45:25;;;;;;;49.40;27.17;;;4.60;99.90;;;;;;5039280;28;20052;-72
2024/01/13 02:48:09;;;;;;;58.85;27.58;;;4.60;99.90;;;;;;5033879;28;22733;-71
2024/01/13 02:50:34;;;;;;;60.63;28.38;;;4.50;99.90;;;;;;5038974;28;20037;-72
2024/01/13 02:53:00;;;;;;;52.38;28.65;;;4.60;99.90;;;;;;5037163;28;20470;-72
2024/01/13 02:55:26;;;;;;;60.70;29.02;;;4.60;99.90;;;;;;5039665;28;20489;-71
2024/01/13 02:57:51;;;;;;;52.58;27.63;;;4.60;99.90;;;;;;5038091;28;20383;-72
2024/01/13 03:00:17;;;;;;;54.95;28.85;;;4.50;99.90;;;;;;5034789;28;20499;-72
2024/01/13 03:02:44;;;;;;;58.38;29.10;;;4.60;99.90;;;;;;5033115;28;20019;-71
2024/01/13 03:05:10;;;;;;;56.75;29.67;;;4.60;99.90;;;;;;5034805;28;20583;-72
2024/01/13 03:07:35;;;;;;;54.45;28.08;;;4.60;99.90;;;;;;5034186;28;20017;-72
2024/01/13 03:10:02;;;;;;;62.08;30.27;;;4.60;99.90;;;;;;5036586;28;20030;-72
2024/01/13 03:12:27;;;;;;;63.20;29.00;;;4.60;99.90;;;;;;5038361;28;20020;-72
2024/01/13 03:14:53;;;;;;;58.28;28.63;;;4.60;99.90;;;;;;5037134;28;20029;-72
2024/01/13 03:17:19;;;;;;;50.15;26.90;;;4.60;99.90;;;;;;5035706;28;20492;-72
2024/01/13 03:19:44;;;;;;;50.80;29.90;;;4.60;99.90;;;;;;5036204;28;20187;-72
2024/01/13 03:22:10;;;;;;;55.28;30.38;;;4.60;99.90;;;;;;5033110;28;20040;-72
2024/01/13 03:24:36;;;;;;;50.63;28.55;;;4.70;99.90;;;;;;5036398;28;20017;-72
2024/01/13 03:27:01;;;;;;;56.40;28.85;;;4.70;99.90;;;;;;5036395;28;20425;-72
2024/01/13 03:29:27;;;;;;;56.28;28.63;;;4.60;99.90;;;;;;5036546;28;20025;-72
2024/01/13 03:31:53;;;;;;;52.10;27.42;;;4.60;99.90;;;;;;5034723;28;20010;-72
2024/01/13 03:34:18;;;;;;;48.88;25.67;;;4.60;99.90;;;;;;5037449;28;20038;-71
2024/01/13 03:36:44;;;;;;;52.90;27.58;;;4.70;99.90;;;;;;5032568;28;20059;-72
2024/01/13 03:39:10;;;;;;;49.13;29.23;;;4.60;99.90;;;;;;5032814;28;20036;-72
2024/01/13 03:41:37;;;;;;;46.28;28.00;;;4.50;99.90;;;;;;5033416;28;20029;-72
2024/01/13 03:44:03;;;;;;;47.03;25.70;;;4.60;99.90;;;;;;5033684;28;20117;-72
2024/01/13 03:46:28;;;;;;;44.45;25.27;;;4.60;99.90;;;;;;5035887;28;20100;-72
2024/01/13 03:48:54;;;;;;;45.45;25.38;;;4.60;99.90;;;;;;5037617;28;20079;-72
2024/01/13 03:51:20;;;;;;;42.08;24.67;;;4.60;99.90;;;;;;5035340;28;20578;-72
2024/01/13 03:53:45;;;;;;;43.20;24.58;;;4.70;99.90;;;;;;5035334;28;20543;-72
2024/01/13 03:56:11;;;;;;;43.85;23.50;;;4.70;99.90;;;;;;5033687;28;20033;-72
2024/01/13 03:58:38;;;;;;;42.28;24.80;;;4.70;99.90;;;;;;5032986;28;20026;-73
2024/01/13 04:01:04;;;;;;;39.53;21.95;;;4.70;99.90;;;;;;5034276;28;20095;-72
2024/01/13 04:03:30;;;;;;;41.90;22.38;;;4.70;99.90;;;;;;5036657;28;20021;-72
2024/01/13 04:05:56;;;;;;;37.55;22.45;;;4.70;99.90;;;;;;5038787;28;20044;-71
2024/01/13 04:08:22;;;;;;;38.05;22.00;;;4.60;99.90;;;;;;5037583;28;20461;-72
2024/01/13 04:10:48;;;;;;;38.92;23.55;;;4.70;99.90;;;;;;5038207;28;20025;-72
2024/01/13 04:13:14;;;;;;;43.53;24.58;;;4.70;99.90;;;;;;5032779;28;20049;-72
2024/01/13 04:15:40;;;;;;;43.13;24.30;;;4.70;99.90;;;;;;5037287;28;20038;-72
2024/01/13 04:18:06;;;;;;;39.72;22.85;;;4.80;99.90;;;;;;5036583;28;20022;-72
2024/01/13 04:20:32;;;;;;;40.58;24.13;;;4.70;99.90;;;;;;5035173;28;20042;-72
2024/01/13 04:22:58;;;;;;;38.45;22.83;;;4.70;99.90;;;;;;5030890;28;20104;-73
2024/01/13 04:25:23;;;;;;;38.08;23.33;;;4.70;99.90;;;;;;5033637;28;20052;-71
2024/01/13 04:27:50;;;;;;;46.58;24.58;;;4.60;99.90;;;;;;5033855;28;20021;-72
2024/01/13 04:30:16;;;;;;;43.10;24.48;;;4.70;99.90;;;;;;5035087;28;20029;-72
2024/01/13 04:32:42;;;;;;;42.88;24.20;;;4.70;99.90;;;;;;5034931;28;20532;-72
2024/01/13 04:35:08;;;;;;;42.65;24.65;;;4.70;99.90;;;;;;5034613;28;20478;-72
2024/01/13 04:37:34;;;;;;;46.72;24.67;;;4.70;99.90;;;;;;5034220;28;20021;-72
2024/01/13 04:40:00;;;;;;;51.47;26.30;;;4.60;99.90;;;;;;5033729;28;20037;-72
2024/01/13 04:42:25;;;;;;;46.35;25.60;;;4.60;99.90;;;;;;5034945;28;20030;-72
2024/01/13 04:44:51;;;;;;;50.20;26.48;;;4.70;99.90;;;;;;5037510;28;20450;-72
2024/01/13 04:47:17;;;;;;;46.35;26.42;;;4.70;99.90;;;;;;5031280;28;20049;-72
2024/01/13 04:49:43;;;;;;;50.95;26.23;;;4.70;99.90;;;;;;5031191;28;20025;-72
2024/01/13 04:52:09;;;;;;;51.15;28.48;;;4.80;99.90;;;;;;5034073;28;20496;-72
2024/01/13 04:54:34;;;;;;;49.65;27.42;;;4.80;99.90;;;;;;5038197;28;20499;-72
2024/01/13 04:57:00;;;;;;;55.35;29.45;;;4.70;99.90;;;;;;5034071;28;20581;-72
2024/01/13 04:59:26;;;;;;;42.65;27.17;;;4.70;99.90;;;;;;5034382;28;20136;-72
2024/01/13 05:01:52;;;;;;;51.03;29.10;;;4.70;99.90;;;;;;5033161;28;20033;-72
2024/01/13 05:04:18;;;;;;;54.90;31.30;;;4.60;99.90;;;;;;5034419;28;20417;-72
2024/01/13 05:06:44;;;;;;;56.38;29.17;;;4.60;99.90;;;;;;5033746;28;20024;-71
2024/01/13 05:09:10;;;;;;;45.92;25.67;;;4.70;99.90;;;;;;5029814;28;20025;-72
2024/01/13 05:11:36;;;;;;;46.85;26.67;;;4.70;99.90;;;;;;5035115;28;20025;-73
2024/01/13 05:14:02;;;;;;;47.83;27.13;;;4.60;99.90;;;;;;5035877;28;20466;-73
2024/01/13 05:16:28;;;;;;;46.38;25.83;;;4.60;99.90;;;;;;5034807;28;20025;-73
2024/01/13 05:18:53;;;;;;;51.03;26.77;;;4.70;99.90;;;;;;5036512;28;20048;-72
2024/01/13 05:21:19;;;;;;;45.38;27.35;;;4.70;99.90;;;;;;5032664;28;20040;-72
2024/01/13 05:23:45;;;;;;;48.97;26.40;;;4.70;99.90;;;;;;5031923;28;22760;-72
2024/01/13 05:26:11;;;;;;;52.53;27.98;;;4.70;99.90;;;;;;5033212;28;20032;-72
2024/01/13 05:28:36;;;;;;;48.45;26.90;;;4.70;99.90;;;;;;5031081;28;20814;-72
2024/01/13 05:31:02;;;;;;;46.80;26.30;;;4.70;99.90;;;;;;5034272;28;20029;-72
2024/01/13 05:33:28;;;;;;;50.22;26.20;;;4.70;99.90;;;;;;5038084;28;20462;-73
2024/01/13 05:35:54;;;;;;;46.30;27.30;;;4.70;99.90;;;;;;5034957;28;20021;-71
2024/01/13 05:38:20;;;;;;;45.63;25.42;;;4.70;99.90;;;;;;5035618;28;20074;-72
2024/01/13 05:40:45;;;;;;;45.47;27.08;;;4.70;99.90;;;;;;5034836;28;20482;-72
2024/01/13 05:43:11;;;;;;;48.25;25.52;;;4.70;99.90;;;;;;5034724;28;20024;-72
2024/01/13 05:45:37;;;;;;;47.90;25.05;;;4.70;99.90;;;;;;5035002;28;20029;-72
2024/01/13 05:48:03;;;;;;;43.03;24.35;;;4.70;99.90;;;;;;5036044;28;20017;-72
2024/01/13 05:50:29;;;;;;;45.55;25.25;;;4.70;99.90;;;;;;5036681;28;20032;-72
2024/01/13 05:52:54;;;;;;;49.10;26.90;;;4.70;99.90;;;;;;5038817;28;20103;-72
2024/01/13 05:55:20;;;;;;;44.15;25.20;;;4.70;99.90;;;;;;5032846;28;20044;-73
2024/01/13 05:57:46;;;;;;;44.70;26.10;;;4.70;99.90;;;;;;5033887;28;20021;-73
2024/01/13 06:00:12;;;;;;;49.58;27.92;;;4.80;99.90;;;;;;5031878;28;20032;-72
2024/01/13 06:02:37;;;;;;;49.70;27.80;;;4.80;99.90;;;;;;5033761;28;20041;-72
2024/01/13 06:05:03;;;;;;;47.25;27.33;;;4.80;99.90;;;;;;5034579;28;20049;-73
2024/01/13 06:07:29;;;;;;;47.90;26.33;;;4.80;99.90;;;;;;5034497;28;20107;-72
2024/01/13 06:09:55;;;;;;;47.85;26.77;;;4.70;99.90;;;;;;5034994;28;20021;-72
2024/01/13 06:12:22;;;;;;;50.00;26.95;;;4.70;99.90;;;;;;5034971;28;20033;-72
2024/01/13 06:14:48;;;;;;;49.88;26.95;;;4.70;99.90;;;;;;5028017;28;20028;-72
2024/01/13 06:17:14;;;;;;;54.70;25.75;;;4.80;99.90;;;;;;5030916;28;20033;-72
2024/01/13 06:19:39;;;;;;;46.03;24.98;;;4.80;99.90;;;;;;5033786;28;20061;-72
2024/01/13 06:22:05;;;;;;;44.75;24.70;;;4.70;99.90;;;;;;5035930;28;20116;-72
2024/01/13 06:24:30;;;;;;;47.22;24.90;;;4.70;99.90;;;;;;5032577;28;20396;-72
2024/01/13 06:26:56;;;;;;;39.38;22.63;;;4.70;99.90;;;;;;5036075;28;20070;-72
2024/01/13 06:29:22;;;;;;;43.33;24.42;;;4.70;99.90;;;;;;5034519;28;20515;-72
2024/01/13 06:31:47;;;;;;;40.28;24.67;;;4.70;99.90;;;;;;5031783;28;20534;-73
2024/01/13 06:34:13;;;;;;;42.63;25.10;;;4.70;99.90;;;;;;5034349;28;20040;-72
2024/01/13 06:36:39;;;;;;;48.58;25.02;;;4.70;99.90;;;;;;5033043;28;20056;-71
2024/01/13 06:39:05;;;;;;;49.05;26.40;;;4.70;99.90;;;;;;5034621;28;20048;-72
2024/01/13 06:41:31;;;;;;;46.42;23.35;;;4.70;99.90;;;;;;5033366;28;20124;-72
2024/01/13 06:43:56;;;;;;;44.75;24.38;;;4.80;99.90;;;;;;5034255;28;20520;-72
2024/01/13 06:46:22;;;;;;;48.80;25.88;;;4.80;99.90;;;;;;5035799;28;20028;-73
2024/01/13 06:48:48;;;;;;;40.45;23.50;;;4.80;99.90;;;;;;5034107;28;20406;-72
2024/01/13 06:51:14;;;;;;;40.58;24.48;;;4.80;99.90;;;;;;5035510;28;20033;-71
2024/01/13 06:53:40;;;;;;;43.28;23.25;;;4.80;99.90;;;;;;5038146;28;22665;-73
2024/01/13 06:56:06;;;;;;;42.88;23.77;;;4.80;99.90;;;;;;5037594;28;20091;-73
2024/01/13 06:58:31;;;;;;;41.45;24.17;;;4.80;99.90;;;;;;5033241;28;20022;-73
2024/01/13 07:00:58;;;;;;;39.85;23.15;;;4.80;99.90;;;;;;5037681;28;20064;-73
2024/01/13 07:03:24;;;;;;;46.92;24.52;;;4.80;99.90;;;;;;5038797;28;20025;-71
2024/01/13 07:05:49;;;;;;;40.83;24.65;;;4.70;99.90;;;;;;5035988;28;20544;-72
2024/01/13 07:08:15;;;;;;;40.10;22.10;;;4.70;99.90;;;;;;5033902;28;20104;-72
2024/01/13 07:10:41;;;;;;;42.10;23.52;;;4.70;99.90;;;;;;5034391;28;20034;-72
2024/01/13 07:13:07;;;;;;;47.78;24.15;;;4.70;99.90;;;;;;5036274;28;20075;-72
2024/01/13 07:15:32;;;;;;;39.38;22.90;;;4.70;99.90;;;;;;5035702;28;20021;-71
2024/01/13 07:18:00;;;;;;;41.95;23.85;;;4.70;99.90;;;;;;5035567;28;20036;-72
2024/01/13 07:20:26;;;;;;;42.88;22.05;;;4.70;99.90;;;;;;5051735;28;20494;-72
2024/01/13 07:22:53;;;;;;;38.47;22.02;;;4.70;99.90;;;;;;5038026;28;20052;-72
2024/01/13 07:25:19;;;;;;;38.47;22.48;;;4.70;99.90;;;;;;5034367;28;20129;-72
2024/01/13 07:27:44;;;;;;;37.60;22.10;;;4.70;99.90;;;;;;5036249;28;20095;-72
2024/01/13 07:30:11;;;;;;;41.10;23.55;;;4.70;99.90;;;;;;5037040;28;20033;-71
2024/01/13 07:32:38;;;;;;;43.10;23.30;;;4.70;99.90;;;;;;5037839;28;20017;-72
2024/01/13 07:35:04;;;;;;;39.70;22.20;;;4.70;99.90;;;;;;5038462;28;20021;-72
2024/01/13 07:37:29;;;;;;;39.65;21.13;;;4.70;99.90;;;;;;5038277;28;20021;-71
2024/01/13 07:39:55;;;;;;;31.10;18.58;;;4.70;99.90;;;;;;5036265;28;20037;-71
2024/01/13 07:42:21;;;;;;;36.42;19.35;;;4.80;99.90;;;;;;5034725;28;20089;-72
2024/01/13 07:44:46;;;;;;;36.85;20.80;;;4.70;99.90;;;;;;5034889;28;20009;-71
2024/01/13 07:47:12;;;;;;;35.92;19.73;;;4.70;99.90;;;;;;5033811;28;20099;-72
2024/01/13 07:49:38;;;;;;;33.40;19.40;;;4.70;99.90;;;;;;5036417;28;20094;-72
2024/01/13 07:52:04;;;;;;;39.45;20.42;;;4.70;99.90;;;;;;5036197;28;20032;-71
2024/01/13 07:54:29;;;;;;;36.25;19.52;;;4.70;99.90;;;;;;5036336;28;20020;-72
2024/01/13 07:56:55;;;;;;;34.58;19.60;;;4.70;99.90;;;;;;5030697;28;20064;-73
2024/01/13 07:59:22;;;;;;;33.17;17.60;;;4.70;99.90;;;;;;5032324;28;20048;-72
2024/01/13 08:01:48;;;;;;;33.45;18.02;;;4.70;99.90;;;;;;5036328;28;20029;-72
2024/01/13 08:04:15;;;;;;;39.42;19.40;;;4.70;99.90;;;;;;5032691;28;20358;-72
2024/01/13 08:06:41;;;;;;;34.72;17.42;;;4.70;99.90;;;;;;5038219;28;20104;-72
2024/01/13 08:09:07;;;;;;;35.97;18.50;;;4.70;99.90;;;;;;5030444;28;20083;-71
2024/01/13 08:11:33;;;;;;;35.40;18.02;;;4.70;99.90;;;;;;5037025;28;20436;-71
2024/01/13 08:14:00;;;;;;;31.13;17.83;;;4.70;99.90;;;;;;5033177;28;20020;-72
2024/01/13 08:16:27;;;;;;;31.52;18.90;;;4.60;99.90;;;;;;5035669;28;22697;-71
2024/01/13 08:18:52;;;;;;;34.13;18.27;;;4.70;99.90;;;;;;5032922;28;20025;-72
2024/01/13 08:21:18;;;;;;;32.03;17.73;;;4.70;99.90;;;;;;5032694;28;20041;-72
2024/01/13 08:23:44;;;;;;;33.83;17.48;;;4.70;99.90;;;;;;5035250;28;20074;-72
2024/01/13 08:26:11;;;;;;;30.42;18.48;;;4.70;99.90;;;;;;5033024;28;20029;-71
2024/01/13 08:28:37;;;;;;;32.70;16.95;;;4.80;99.90;;;;;;5034729;28;20060;-71
2024/01/13 08:31:03;;;;;;;28.90;17.42;;;4.80;99.90;;;;;;5035243;28;20068;-71
2024/01/13 08:33:29;;;;;;;34.20;17.15;;;4.80;99.90;;;;;;5032916;28;20018;-71
2024/01/13 08:35:54;;;;;;;34.05;15.82;;;4.80;99.90;;;;;;5033806;28;20040;-71
2024/01/13 08:38:20;;;;;;;30.13;16.85;;;4.80;99.90;;;;;;5031929;28;20529;-71
2024/01/13 08:40:45;;;;;;;32.22;16.88;;;4.80;99.90;;;;;;5036150;28;20469;-72
2024/01/13 08:43:12;;;;;;;33.05;17.10;;;4.80;99.90;;;;;;5035546;28;20029;-72
2024/01/13 08:45:38;;;;;;;27.50;17.23;;;4.80;99.90;;;;;;5037940;28;20017;-72
2024/01/13 08:48:04;;;;;;;33.58;16.90;;;4.70;99.90;;;;;;5037251;28;20071;-71
2024/01/13 08:50:31;;;;;;;27.35;15.93;;;4.80;99.90;;;;;;5033558;28;20033;-72
2024/01/13 08:52:57;;;;;;;28.70;16.73;;;4.70;99.90;;;;;;5032264;28;20029;-72
2024/01/13 08:55:23;;;;;;;32.65;16.58;;;4.80;99.90;;;;;;5031243;28;20029;-71
2024/01/13 08:57:49;;;;;;;31.20;16.20;;;4.80;99.90;;;;;;5034563;28;20367;-72
2024/01/13 09:00:15;;;;;;;34.38;15.13;;;4.80;99.90;;;;;;5034518;28;20040;-72
2024/01/13 09:02:42;;;;;;;26.00;14.95;;;4.70;99.90;;;;;;5036618;28;20540;-72
2024/01/13 09:05:08;;;;;;;26.50;15.10;;;4.80;99.90;;;;;;5031005;28;20029;-71
2024/01/13 09:07:35;;;;;;;27.65;16.58;;;4.70;99.90;;;;;;5035315;28;20021;-71
2024/01/13 09:10:01;;;;;;;27.95;15.52;;;4.80;99.90;;;;;;5032329;28;20104;-70
2024/01/13 09:12:27;;;;;;;31.88;16.38;;;4.70;99.90;;;;;;5033083;28;20033;-70
2024/01/13 09:14:53;;;;;;;31.92;16.10;;;4.80;99.90;;;;;;5034184;28;20382;-71
2024/01/13 09:17:18;;;;;;;27.35;16.42;;;4.80;99.90;;;;;;5034460;28;20031;-70
2024/01/13 09:19:44;;;;;;;30.98;16.15;;;4.80;99.90;;;;;;5032360;28;20427;-71
2024/01/13 09:22:10;;;;;;;27.60;15.93;;;4.90;99.90;;;;;;5033179;28;20470;-71
2024/01/13 09:24:36;;;;;;;28.10;16.25;;;4.90;99.90;;;;;;5035707;28;20104;-71
2024/01/13 09:27:01;;;;;;;29.23;16.17;;;4.90;99.90;;;;;;5034104;28;20537;-71
2024/01/13 09:29:27;;;;;;;27.45;14.98;;;4.90;99.90;;;;;;5035091;28;20675;-71
2024/01/13 09:31:53;;;;;;;27.23;16.20;;;4.90;99.90;;;;;;5036829;28;20363;-70
2024/01/13 09:34:19;;;;;;;28.40;15.45;;;5.00;99.90;;;;;;5034729;28;20549;-72
2024/01/13 09:36:45;;;;;;;26.90;15.88;;;5.00;99.90;;;;;;5034625;28;20472;-71
2024/01/13 09:39:11;;;;;;;26.38;15.63;;;4.90;99.90;;;;;;5039176;28;20103;-71
2024/01/13 09:41:38;;;;;;;27.65;15.95;;;4.90;99.90;;;;;;5030828;28;20140;-71
2024/01/13 09:44:13;;;;;;;28.52;16.40;;;4.90;99.90;;;;;;5030719;28;20087;-71
2024/01/13 09:46:39;;;;;;;28.40;17.30;;;5.00;99.90;;;;;;5032738;28;20788;-71
2024/01/13 09:49:12;;;;;;;33.60;18.10;;;5.00;99.90;;;;;;5031647;28;20581;-72
2024/01/13 09:51:39;;;;;;;28.27;17.08;;;4.90;99.90;;;;;;5034572;28;20017;-70
2024/01/13 09:54:11;;;;;;;27.77;16.63;;;5.00;99.90;;;;;;5033060;28;20505;-71
2024/01/13 09:56:46;;;;;;;29.48;17.00;;;5.00;99.90;;;;;;5035926;28;20029;-70
2024/01/13 09:59:12;;;;;;;28.35;16.58;;;5.00;99.90;;;;;;5033165;28;20075;-70
2024/01/13 10:01:39;;;;;;;32.47;18.17;;;5.00;99.90;;;;;;5030168;28;20049;-70
2024/01/13 10:04:05;;;;;;;31.88;17.17;;;5.00;99.90;;;;;;5033711;28;20060;-70
2024/01/13 10:06:33;;;;;;;30.48;18.13;;;5.00;99.90;;;;;;5031174;28;20029;-70
2024/01/13 10:08:59;;;;;;;32.65;17.23;;;5.00;99.90;;;;;;5033406;28;20306;-70
2024/01/13 10:11:25;;;;;;;32.17;17.23;;;5.00;99.90;;;;;;5030666;28;20445;-70
2024/01/13 10:14:04;;;;;;;31.73;17.40;;;5.10;99.90;;;;;;5035394;28;20057;-70
2024/01/13 10:16:32;;;;;;;32.65;17.92;;;5.10;99.90;;;;;;5035303;28;20044;-72
2024/01/13 10:19:01;;;;;;;30.42;18.95;;;5.10;99.90;;;;;;5031501;28;20021;-70
2024/01/13 10:21:27;;;;;;;31.75;17.65;;;5.10;99.90;;;;;;5030376;28;20060;-71
2024/01/13 10:23:57;;;;;;;34.10;18.38;;;5.10;99.90;;;;;;5033860;28;20025;-72
2024/01/13 10:26:24;;;;;;;30.88;17.17;;;5.10;99.90;;;;;;5033935;28;20395;-72
2024/01/13 10:28:50;;;;;;;33.70;19.27;;;5.10;99.90;;;;;;5039362;28;20017;-71
2024/01/13 10:31:18;;;;;;;36.72;18.63;;;5.10;99.90;;;;;;5034518;28;20017;-70
2024/01/13 10:33:48;;;;;;;28.75;16.85;;;5.00;99.90;;;;;;5036968;28;20039;-73
2024/01/13 10:36:24;;;;;;;29.83;18.08;;;5.10;99.90;;;;;;5038151;28;20021;-70
2024/01/13 10:38:51;;;;;;;34.10;19.13;;;5.10;99.90;;;;;;5034774;28;20018;-71
2024/01/13 10:41:21;;;;;;;33.95;19.13;;;5.10;99.90;;;;;;5037950;28;20038;-71
2024/01/13 10:43:52;;;;;;;32.50;18.73;;;5.10;99.90;;;;;;5037538;28;20441;-71
2024/01/13 10:46:22;;;;;;;32.15;18.33;;;5.10;99.90;;;;;;5034670;28;20033;-71
2024/01/13 10:48:51;;;;;;;35.38;19.85;;;5.10;99.90;;;;;;5037582;28;20048;-72
2024/01/13 10:51:33;;;;;;;33.03;18.73;;;5.10;99.90;;;;;;5037579;28;20075;-71
2024/01/13 10:54:00;;;;;;;;;;;5.10;99.90;;;;;;5035234;28;20036;-70
2024/01/13 10:56:28;;;;;;;34.65;19.73;;;5.10;99.90;;;;;;5034578;28;19913;-71
2024/01/13 10:58:55;;;;;;;43.67;22.20;;;5.10;99.90;;;;;;5034992;28;20053;-72
2024/01/13 11:01:21;;;;;;;38.03;21.65;;;5.10;99.90;;;;;;5036739;28;20485;-70
2024/01/13 11:03:49;;;;;;;35.67;21.35;;;5.10;99.90;;;;;;5034190;28;20020;-73
2024/01/13 11:06:15;;;;;;;43.08;23.35;;;5.10;99.90;;;;;;5039538;28;20470;-72
2024/01/13 11:08:42;;;;;;;43.28;24.50;;;5.10;99.90;;;;;;5036623;28;20076;-71
2024/01/13 11:11:11;;;;;;;42.38;21.80;;;5.10;99.90;;;;;;5035726;28;20064;-71
2024/01/13 11:13:47;;;;;;;41.13;24.33;;;5.00;99.90;;;;;;5034080;28;20028;-71
2024/01/13 11:16:17;;;;;;;40.05;22.25;;;5.10;99.90;;;;;;5036829;28;20485;-71
2024/01/13 11:18:49;;;;;;;39.50;21.98;;;5.10;99.90;;;;;;5035230;28;20024;-73
2024/01/13 11:21:22;;;;;;;39.67;22.50;;;5.10;99.90;;;;;;5034642;28;20029;-71
2024/01/13 11:23:58;;;;;;;37.20;21.30;;;5.00;99.90;;;;;;5039308;28;20020;-74
2024/01/13 11:26:38;;;;;;;41.58;21.50;;;5.10;99.90;;;;;;5036157;28;20025;-71
2024/01/13 11:29:16;;;;;;;40.50;23.00;;;5.10;99.90;;;;;;5035238;28;20069;-71
2024/01/13 11:31:57;;;;;;;43.45;24.08;;;5.20;99.90;;;;;;5032943;28;20056;-71
2024/01/13 11:34:24;;;;;;;40.33;23.05;;;5.20;99.90;;;;;;5033829;28;20606;-70
2024/01/13 11:36:51;;;;;;;40.47;23.58;;;5.20;99.90;;;;;;5033203;28;20034;-73
2024/01/13 11:39:20;;;;;;;40.92;24.08;;;5.20;99.90;;;;;;5032988;28;20112;-71
2024/01/13 11:41:46;;;;;;;42.08;25.45;;;5.20;99.90;;;;;;5035167;28;20040;-72
2024/01/13 11:44:22;;;;;;;39.90;24.20;;;5.20;99.90;;;;;;5035295;28;20298;-72
2024/01/13 11:47:05;;;;;;;44.90;23.95;;;5.20;99.90;;;;;;5033924;28;20063;-74
2024/01/13 11:49:31;;;;;;;;;;;5.30;99.90;;;;;;5032938;28;20032;-74
2024/01/13 11:52:24;;;;;;;43.28;23.17;;;5.30;99.90;;;;;;5034269;28;20361;-71
2024/01/13 11:54:50;;;;;;;41.00;25.02;;;5.30;99.90;;;;;;5037549;28;20036;-75
2024/01/13 11:57:16;;;;;;;43.10;24.40;;;5.20;99.90;;;;;;5031002;28;20367;-75
2024/01/13 11:59:42;;;;;;;48.65;26.38;;;5.20;99.90;;;;;;5033431;28;20098;-75
2024/01/13 12:02:09;;;;;;;43.03;23.48;;;5.10;99.90;;;;;;5031039;28;20501;-71
2024/01/13 12:04:36;;;;;;;41.95;24.45;;;5.20;99.90;;;;;;5026374;28;20041;-72
2024/01/13 12:07:05;;;;;;;43.53;25.98;;;5.30;99.90;;;;;;5029565;28;20356;-72
2024/01/13 12:09:31;;;;;;;43.03;24.95;;;5.20;99.90;;;;;;5030067;28;20021;-71
2024/01/13 12:11:58;;;;;;;47.42;25.23;;;5.20;99.90;;;;;;5032733;28;20025;-72
2024/01/13 12:14:32;;;;;;;44.85;26.95;;;5.20;99.90;;;;;;5032105;28;20017;-71
2024/01/13 12:16:59;;;;;;;47.83;24.67;;;5.20;99.90;;;;;;5031300;28;20072;-72
2024/01/13 12:19:36;;;;;;;41.97;23.92;;;5.20;99.90;;;;;;5029268;28;20025;-72
2024/01/13 12:22:03;;;;;;;40.88;23.52;;;5.30;99.90;;;;;;5029784;28;20045;-71
2024/01/13 12:24:30;;;;;;;44.75;24.17;;;5.30;99.90;;;;;;5033212;28;20040;-72
2024/01/13 12:26:57;;;;;;;45.75;25.40;;;5.20;99.90;;;;;;5033060;28;20083;-72
2024/01/13 12:29:30;;;;;;;39.97;23.73;;;5.30;99.90;;;;;;5033163;28;20458;-72
2024/01/13 12:32:05;;;;;;;42.72;25.13;;;5.30;99.90;;;;;;5027836;28;20021;-71
2024/01/13 12:34:35;;;;;;;38.75;24.92;;;5.30;99.90;;;;;;5031092;28;20022;-72
2024/01/13 12:37:03;;;;;;;42.20;24.13;;;5.20;99.90;;;;;;5032502;28;20018;-73